Time;durP1;ratioP1;P1;durP2;ratioP2;P2;SDS_P1;SDS_P2;PMS_P1;PMS_P2;Temp;Humidity;BMP_temperature;BMP_pressure;BME280_temperature;BME280_humidity;BME280_pressure;Samples;Min_cycle;Max_cycle;Signal;HPM_P1;HPM_P2
2022/09/02 00:02:21;;;;;;;6.70;6.10;;;;;;;10.60;95.30;101158.25;4925066;29;20071;-76
2022/09/02 00:04:47;;;;;;;5.95;5.35;;;;;;;10.59;95.37;101156.53;4928220;29;20036;-76
2022/09/02 00:07:12;;;;;;;7.00;6.30;;;;;;;10.61;96.02;101160.94;4925286;29;20075;-76
2022/09/02 00:09:39;;;;;;;6.47;5.97;;;;;;;10.68;96.11;101156.53;4929021;29;20047;-76
2022/09/02 00:12:05;;;;;;;7.07;6.38;;;;;;;10.72;95.80;101159.19;4937808;29;20043;-75
2022/09/02 00:14:34;;;;;;;7.45;6.32;;;;;;;10.79;95.45;101154.78;4941837;29;20075;-76
2022/09/02 00:17:00;;;;;;;7.07;6.10;;;;;;;10.83;95.84;101155.72;4939379;29;20412;-76
2022/09/02 00:19:28;;;;;;;6.90;6.00;;;;;;;10.85;95.26;101157.47;4946930;29;20039;-76
2022/09/02 00:21:55;;;;;;;6.93;6.10;;;;;;;10.86;94.81;101153.06;4931078;29;20403;-76
2022/09/02 00:24:22;;;;;;;6.97;5.20;;;;;;;10.85;94.18;101153.97;4926681;29;20233;-76
2022/09/02 00:26:48;;;;;;;9.13;6.00;;;;;;;10.85;94.02;101146.03;4924973;29;20032;-76
2022/09/02 00:29:15;;;;;;;7.05;5.95;;;;;;;10.86;94.47;101150.44;4930452;29;20059;-76
2022/09/02 00:31:42;;;;;;;7.70;5.57;;;;;;;10.86;94.20;101146.03;4930950;29;20093;-75
2022/09/02 00:34:08;;;;;;;6.22;5.72;;;;;;;10.87;94.14;101147.81;4925775;29;20399;-76
2022/09/02 00:36:34;;;;;;;6.80;6.10;;;;;;;10.88;94.52;101144.28;4940240;29;20459;-76
2022/09/02 00:39:00;;;;;;;8.32;6.00;;;;;;;10.84;93.87;101147.78;4926682;29;20075;-76
2022/09/02 00:41:27;;;;;;;7.18;6.28;;;;;;;10.80;94.18;101139.88;4927409;29;20039;-76
2022/09/02 00:44:02;;;;;;;6.50;5.90;;;;;;;10.76;94.59;101138.94;4924529;29;20039;-77
2022/09/02 00:46:29;;;;;;;6.38;5.78;;;;;;;10.75;94.13;101137.19;4928804;29;20810;-76
2022/09/02 00:49:07;;;;;;;7.15;6.30;;;;;;;10.74;94.28;101135.41;4926994;29;20036;-76
2022/09/02 00:51:40;;;;;;;6.30;5.38;;;;;;;10.76;94.46;101138.94;4943119;28;20051;-76
2022/09/02 00:54:06;;;;;;;8.70;6.25;;;;;;;10.77;93.70;101140.75;4924502;29;20086;-76
2022/09/02 00:56:35;;;;;;;6.93;6.22;;;;;;;10.74;94.08;101133.69;4927053;29;20122;-76
2022/09/02 00:59:01;;;;;;;6.95;6.25;;;;;;;10.71;93.68;101140.69;4924883;29;20040;-76
2022/09/02 01:01:27;;;;;;;8.50;6.10;;;;;;;10.68;94.39;101140.69;4924254;29;20028;-76
2022/09/02 01:03:52;;;;;;;7.25;6.18;;;;;;;10.60;94.96;101137.16;4925975;29;20520;-76
2022/09/02 01:06:23;;;;;;;7.10;6.40;;;;;;;10.52;95.96;101132.72;4924147;29;20039;-76
2022/09/02 01:08:55;;;;;;;7.07;6.03;;;;;;;10.49;96.37;101135.34;4938535;29;20051;-76
2022/09/02 01:11:21;;;;;;;7.22;6.63;;;;;;;10.41;97.84;101137.09;4927235;29;20036;-76
2022/09/02 01:13:47;;;;;;;7.70;6.90;;;;;;;10.40;98.59;101129.16;4924590;29;20574;-76
2022/09/02 01:16:24;;;;;;;7.70;6.85;;;;;;;10.37;99.34;101132.66;4926597;29;20038;-76
2022/09/02 01:18:52;;;;;;;7.45;6.63;;;;;;;10.37;98.96;101130.00;4939354;29;20051;-76
2022/09/02 01:21:18;;;;;;;7.03;6.13;;;;;;;10.41;98.54;101125.66;4925595;29;20047;-75
2022/09/02 01:23:45;;;;;;;7.88;6.82;;;;;;;10.40;98.00;101130.06;4926571;29;20036;-76
2022/09/02 01:26:10;;;;;;;6.35;5.75;;;;;;;10.39;98.38;101128.28;4923583;29;20032;-76
2022/09/02 01:28:36;;;;;;;6.40;5.80;;;;;;;10.38;97.34;101139.72;4925848;29;20438;-76
2022/09/02 01:31:02;;;;;;;7.05;6.18;;;;;;;10.40;97.33;101132.69;4936084;29;20414;-76
2022/09/02 01:33:28;;;;;;;7.50;6.60;;;;;;;10.42;97.01;101133.56;4925067;29;20118;-76
2022/09/02 01:35:54;;;;;;;6.88;6.18;;;;;;;10.43;96.81;101135.34;4923988;29;20102;-77
2022/09/02 01:38:20;;;;;;;7.15;6.55;;;;;;;10.46;96.86;101140.63;4926376;29;20082;-76
2022/09/02 01:40:46;;;;;;;8.05;6.70;;;;;;;10.48;96.64;101130.97;4938062;29;20032;-76
2022/09/02 01:43:17;;;;;;;8.02;7.22;;;;;;;10.49;96.69;101130.06;4945481;29;20571;-76
2022/09/02 01:45:46;;;;;;;;;;;;;;;10.49;97.35;101139.75;4940858;29;20032;-76
2022/09/02 01:48:14;;;;;;;6.75;6.03;;;;;;;10.48;97.26;101138.88;4940895;29;19921;-75
2022/09/02 01:50:44;;;;;;;6.72;6.07;;;;;;;10.51;96.84;101130.97;4940457;28;20031;-76
2022/09/02 01:53:09;;;;;;;8.70;6.05;;;;;;;10.51;97.03;101135.38;4929602;29;20023;-76
2022/09/02 01:55:35;;;;;;;7.68;6.88;;;;;;;10.52;96.32;101132.72;4924398;29;20067;-75
2022/09/02 01:58:01;;;;;;;6.55;5.75;;;;;;;10.51;96.05;101124.81;4940144;29;20113;-75
2022/09/02 02:00:26;;;;;;;7.88;6.50;;;;;;;10.50;96.03;101131.81;4923067;29;20032;-76
2022/09/02 02:02:52;;;;;;;7.90;6.32;;;;;;;10.48;95.93;101133.59;4937548;29;20407;-77
2022/09/02 02:05:18;;;;;;;8.93;6.45;;;;;;;10.45;95.74;101128.31;4925540;29;20079;-76
2022/09/02 02:07:46;;;;;;;7.10;6.38;;;;;;;10.46;95.66;101123.91;4938641;29;20032;-76
2022/09/02 02:10:13;;;;;;;6.85;6.25;;;;;;;10.43;95.56;101122.16;4924065;29;20075;-76
2022/09/02 02:12:40;;;;;;;7.15;6.28;;;;;;;10.41;95.16;101115.09;4926467;29;20024;-76
2022/09/02 02:15:12;;;;;;;7.22;6.50;;;;;;;10.38;95.42;101115.97;4929834;29;20093;-76
2022/09/02 02:17:38;;;;;;;7.40;6.65;;;;;;;10.35;95.52;101121.25;4924559;29;20028;-77
2022/09/02 02:20:05;;;;;;;7.05;6.35;;;;;;;10.35;95.99;101115.06;4924983;29;20039;-76
2022/09/02 02:22:31;;;;;;;7.68;6.93;;;;;;;10.35;95.86;101113.31;4940812;28;20187;-76
2022/09/02 02:24:56;;;;;;;7.70;6.88;;;;;;;10.37;96.38;101115.94;4922817;29;20668;-76
2022/09/02 02:27:21;;;;;;;7.65;6.20;;;;;;;10.30;97.01;101117.69;4925503;29;20035;-76
2022/09/02 02:29:47;;;;;;;5.82;5.32;;;;;;;10.25;95.92;101114.13;4935316;29;20152;-76
2022/09/02 02:32:13;;;;;;;6.68;5.78;;;;;;;10.15;95.32;101115.81;4923895;29;20044;-76
2022/09/02 02:34:39;;;;;;;6.88;6.13;;;;;;;10.06;96.03;101111.41;4938415;29;20035;-76
2022/09/02 02:37:05;;;;;;;8.52;7.63;;;;;;;9.99;95.42;101109.59;4925237;29;20047;-76
2022/09/02 02:39:30;;;;;;;7.55;5.80;;;;;;;9.92;95.46;101114.81;4921676;29;20384;-76
2022/09/02 02:41:56;;;;;;;6.65;5.88;;;;;;;9.86;96.25;101118.31;4926864;29;20063;-75
2022/09/02 02:44:21;;;;;;;9.65;6.05;;;;;;;9.82;96.99;101113.88;4939535;29;20035;-76
2022/09/02 02:46:47;;;;;;;6.38;5.72;;;;;;;9.72;96.03;101112.94;4919489;29;20392;-76
2022/09/02 02:49:12;;;;;;;6.35;5.75;;;;;;;9.62;96.62;101106.72;4927841;29;20063;-76
2022/09/02 02:51:39;;;;;;;6.57;5.97;;;;;;;9.57;97.26;101104.94;4924834;29;20035;-77
2022/09/02 02:54:05;;;;;;;9.68;6.68;;;;;;;9.50;97.81;101109.25;4937088;29;20058;-76
2022/09/02 02:56:31;;;;;;;7.32;6.63;;;;;;;9.51;97.51;101107.50;4924199;29;20144;-76
2022/09/02 02:59:00;;;;;;;8.95;6.22;;;;;;;9.49;98.93;101111.91;4934796;29;20054;-76
2022/09/02 03:01:27;;;;;;;7.70;6.30;;;;;;;9.43;99.05;101105.72;4938827;29;20091;-76
2022/09/02 03:03:53;;;;;;;8.13;6.70;;;;;;;9.39;99.78;101108.31;4937754;29;20071;-76
2022/09/02 03:06:22;;;;;;;8.48;6.55;;;;;;;9.36;99.74;101108.28;4941418;29;20119;-76
2022/09/02 03:08:48;;;;;;;9.82;7.70;;;;;;;9.38;100.00;101107.44;4927372;29;20067;-76
2022/09/02 03:11:16;;;;;;;8.63;6.68;;;;;;;9.41;100.00;101103.94;4930480;29;20032;-75
2022/09/02 03:13:42;;;;;;;7.63;7.00;;;;;;;9.43;100.00;101104.81;4923507;29;20066;-76
2022/09/02 03:16:08;;;;;;;8.15;6.80;;;;;;;9.47;100.00;101111.00;4937304;29;20067;-76
2022/09/02 03:18:33;;;;;;;10.20;7.90;;;;;;;9.46;100.00;101102.22;4939976;29;20075;-76
2022/09/02 03:21:00;;;;;;;10.05;7.25;;;;;;;9.46;100.00;101104.84;4928443;29;20031;-76
2022/09/02 03:23:26;;;;;;;8.60;7.82;;;;;;;9.47;100.00;101103.09;4926564;29;20451;-76
2022/09/02 03:25:52;;;;;;;9.18;7.63;;;;;;;9.46;100.00;101093.41;4941879;29;20039;-76
2022/09/02 03:28:36;;;;;;;9.40;8.00;;;;;;;9.39;100.00;101092.50;4941161;29;20127;-76
2022/09/02 03:31:03;;;;;;;7.55;6.78;;;;;;;9.42;100.00;101103.06;4926786;29;20039;-75
2022/09/02 03:33:29;;;;;;;7.60;6.90;;;;;;;9.46;100.00;101099.59;4942516;28;20035;-77
2022/09/02 03:35:55;;;;;;;8.90;6.72;;;;;;;9.50;100.00;101101.34;4940096;29;20047;-77
2022/09/02 03:38:21;;;;;;;8.52;7.25;;;;;;;9.52;100.00;101094.34;4939918;29;20036;-77
2022/09/02 03:40:46;;;;;;;9.82;8.85;;;;;;;9.57;100.00;101097.91;4942605;29;20043;-77
2022/09/02 03:43:11;;;;;;;11.38;10.27;;;;;;;9.63;100.00;101102.34;4926223;29;20043;-77
2022/09/02 03:45:40;;;;;;;16.95;13.60;;;;;;;9.65;100.00;101098.84;4926798;29;20032;-77
2022/09/02 03:48:07;;;;;;;11.25;9.32;;;;;;;9.68;100.00;101102.38;4942697;29;20087;-77
2022/09/02 03:50:39;;;;;;;7.38;6.68;;;;;;;9.61;100.00;101098.78;4943149;28;20036;-77
2022/09/02 03:53:06;;;;;;;8.85;5.90;;;;;;;9.53;100.00;101101.38;4925600;29;20106;-77
2022/09/02 03:55:32;;;;;;;7.95;7.15;;;;;;;9.50;100.00;101101.34;4942908;29;20028;-77
2022/09/02 03:57:58;;;;;;;8.02;6.45;;;;;;;9.51;100.00;101103.16;4934713;29;20102;-77
2022/09/02 04:00:28;;;;;;;7.72;6.93;;;;;;;9.50;100.00;101101.34;4923773;29;20039;-77
2022/09/02 04:02:55;;;;;;;7.18;6.47;;;;;;;9.50;100.00;101103.13;4925802;29;20031;-77
2022/09/02 04:05:21;;;;;;;6.78;6.15;;;;;;;9.48;100.00;101104.84;4941091;29;20043;-77
2022/09/02 04:07:51;;;;;;;7.68;6.80;;;;;;;9.41;100.00;101102.19;4925367;29;20638;-77
2022/09/02 04:10:19;;;;;;;7.32;6.60;;;;;;;9.33;100.00;101103.88;4934923;29;20039;-77
2022/09/02 04:12:47;;;;;;;8.57;6.50;;;;;;;9.32;100.00;101101.22;4936712;29;20566;-77
2022/09/02 04:15:13;;;;;;;9.32;6.55;;;;;;;9.28;100.00;101096.81;4926308;29;20095;-77
2022/09/02 04:17:41;;;;;;;8.82;7.18;;;;;;;9.25;100.00;101099.41;4940777;29;20035;-77
2022/09/02 04:20:11;;;;;;;6.35;5.75;;;;;;;9.23;100.00;101109.06;4942430;29;20031;-77
2022/09/02 04:22:36;;;;;;;6.95;6.35;;;;;;;9.16;100.00;101101.09;4924870;29;20036;-77
2022/09/02 04:25:04;;;;;;;7.05;6.35;;;;;;;9.14;100.00;101097.59;4925531;29;20023;-77
2022/09/02 04:27:30;;;;;;;7.15;6.30;;;;;;;9.11;100.00;101102.78;4940824;28;20029;-77
2022/09/02 04:29:56;;;;;;;7.28;6.57;;;;;;;9.13;100.00;101101.06;4923725;29;20091;-77
2022/09/02 04:32:22;;;;;;;9.40;6.50;;;;;;;9.15;100.00;101104.59;4938559;29;20032;-77
2022/09/02 04:34:49;;;;;;;9.23;6.88;;;;;;;9.23;100.00;101098.53;4939153;29;20024;-77
2022/09/02 04:37:14;;;;;;;12.20;8.30;;;;;;;9.30;100.00;101102.94;4944563;29;20091;-77
2022/09/02 04:39:40;;;;;;;7.47;6.78;;;;;;;9.35;100.00;101096.88;4938520;29;20430;-78
2022/09/02 04:42:05;;;;;;;8.20;7.15;;;;;;;9.42;99.96;101103.06;4935573;29;20035;-78
2022/09/02 04:44:31;;;;;;;7.32;6.63;;;;;;;9.42;100.00;101103.94;4935508;29;20499;-78
2022/09/02 04:46:57;;;;;;;11.15;7.15;;;;;;;9.46;100.00;101110.13;4947510;28;20024;-78
2022/09/02 04:49:23;;;;;;;8.40;6.70;;;;;;;9.51;100.00;101111.03;4939114;29;20059;-77
2022/09/02 04:51:53;;;;;;;7.32;6.45;;;;;;;9.49;99.99;101112.78;4936203;29;20031;-78
2022/09/02 04:54:18;;;;;;;11.00;7.15;;;;;;;9.49;100.00;101111.91;4954219;28;20039;-78
2022/09/02 04:56:47;;;;;;;21.83;11.82;;;;;;;9.53;100.00;101114.56;4934859;29;20429;-77
2022/09/02 04:59:13;;;;;;;38.92;19.30;;;;;;;9.60;100.00;101108.47;4928537;29;20041;-77
2022/09/02 05:01:46;;;;;;;29.10;15.50;;;;;;;9.68;100.00;101110.28;4929673;29;20122;-77
2022/09/02 05:04:17;;;;;;;15.50;9.90;;;;;;;9.75;100.00;101122.63;4931644;29;20046;-78
2022/09/02 05:06:46;;;;;;;17.70;8.90;;;;;;;9.78;100.00;101112.09;4930807;29;20036;-77
2022/09/02 05:09:17;;;;;;;8.73;7.70;;;;;;;9.80;100.00;101121.78;4931114;29;20534;-77
2022/09/02 05:11:47;;;;;;;8.98;7.60;;;;;;;9.83;100.00;101116.53;4923296;29;20044;-77
2022/09/02 05:14:15;;;;;;;13.20;7.97;;;;;;;9.83;100.00;101120.94;4941679;29;20043;-77
2022/09/02 05:16:42;;;;;;;10.82;9.30;;;;;;;9.83;100.00;101120.94;4938372;29;20036;-77
2022/09/02 05:19:12;;;;;;;13.70;9.73;;;;;;;9.85;100.00;101120.06;4924306;29;20038;-77
2022/09/02 05:21:42;;;;;;;17.40;9.80;;;;;;;9.91;100.00;101116.56;4940759;28;20287;-77
2022/09/02 05:24:09;;;;;;;16.25;11.52;;;;;;;10.05;100.00;101117.53;4938222;29;20051;-77
2022/09/02 05:26:36;;;;;;;13.45;10.02;;;;;;;10.16;100.00;101114.94;4925152;29;20027;-77
2022/09/02 05:29:07;;;;;;;13.15;10.10;;;;;;;10.30;100.00;101115.06;4924581;29;20039;-77
2022/09/02 05:31:33;;;;;;;14.45;10.90;;;;;;;10.39;100.00;101122.13;4924038;29;20103;-77
2022/09/02 05:33:59;;;;;;;13.85;11.23;;;;;;;10.48;100.00;101112.50;4927713;29;20062;-77
2022/09/02 05:36:25;;;;;;;14.15;10.93;;;;;;;10.62;99.57;101124.84;4938574;29;20436;-77
2022/09/02 05:38:50;;;;;;;10.15;8.25;;;;;;;10.69;99.31;101116.94;4926526;29;20082;-77
2022/09/02 05:41:22;;;;;;;8.82;7.88;;;;;;;10.77;98.71;101114.34;4935801;29;20036;-77
2022/09/02 05:43:50;;;;;;;;;;;;;;;10.83;99.27;101111.69;4940749;29;20032;-77
2022/09/02 05:46:17;;;;;;;9.07;8.18;;;;;;;10.92;98.33;101108.19;4941054;29;19911;-77
2022/09/02 05:51:29;;;;;;;9.63;8.68;;;;;;;11.13;97.64;101109.97;4943709;28;20036;-77
2022/09/02 05:53:57;;;;;;;8.40;7.57;;;;;;;11.23;96.83;101106.44;4925860;29;20039;-77
2022/09/02 05:56:24;;;;;;;8.57;7.45;;;;;;;11.31;96.70;101117.91;4929927;29;20023;-77
2022/09/02 05:58:50;;;;;;;9.05;7.38;;;;;;;11.40;96.35;101107.34;4929584;29;20032;-77
2022/09/02 06:01:18;;;;;;;11.32;8.90;;;;;;;11.54;96.22;101106.44;4930641;29;20039;-78
2022/09/02 06:03:45;;;;;;;8.75;7.88;;;;;;;11.64;95.70;101108.22;4943771;28;20086;-77
2022/09/02 06:06:11;;;;;;;8.73;7.93;;;;;;;11.77;95.40;101112.59;4926728;29;20024;-77
2022/09/02 06:08:39;;;;;;;8.23;7.38;;;;;;;11.81;95.41;101109.03;4926394;29;20495;-77
2022/09/02 06:11:08;;;;;;;10.20;7.53;;;;;;;11.89;95.78;101108.19;4940785;29;20574;-77
2022/09/02 06:13:36;;;;;;;9.50;6.70;;;;;;;11.96;96.19;101105.53;4925917;29;20039;-77
2022/09/02 06:16:04;;;;;;;8.57;6.93;;;;;;;12.06;96.03;101106.38;4935237;29;20052;-77
2022/09/02 06:18:30;;;;;;;8.85;7.00;;;;;;;12.20;95.59;101111.63;4942866;29;20041;-77
2022/09/02 06:20:57;;;;;;;7.80;6.70;;;;;;;12.32;95.86;101110.72;4946819;28;20032;-77
2022/09/02 06:23:26;;;;;;;11.07;6.90;;;;;;;12.45;95.03;101118.59;4937400;29;20032;-77
2022/09/02 06:25:52;;;;;;;10.95;8.95;;;;;;;12.59;94.83;101110.56;4925916;29;20043;-77
2022/09/02 06:28:18;;;;;;;9.18;6.43;;;;;;;12.74;93.93;101109.63;4929632;29;20027;-77
2022/09/02 06:30:49;;;;;;;12.23;8.32;;;;;;;12.84;93.36;101113.97;4942380;28;20087;-77
2022/09/02 06:33:18;;;;;;;10.30;9.30;;;;;;;12.99;92.77;101114.75;4941314;29;20036;-77
2022/09/02 06:35:45;;;;;;;9.18;7.50;;;;;;;13.12;92.24;101112.00;4939904;29;20039;-77
2022/09/02 06:38:15;;;;;;;8.63;7.75;;;;;;;13.22;91.61;101110.16;4944505;29;20043;-77
2022/09/02 06:40:49;;;;;;;8.52;7.75;;;;;;;13.28;90.43;101106.59;4928260;29;20035;-77
2022/09/02 06:43:17;;;;;;;7.60;6.78;;;;;;;13.35;90.16;101108.31;4942757;29;20048;-77
2022/09/02 06:46:05;;;;;;;10.30;9.27;;;;;;;13.46;89.82;101109.09;4925313;29;20491;-77
2022/09/02 06:48:33;;;;;;;7.95;7.25;;;;;;;13.53;88.35;101102.84;4926486;29;20037;-77
2022/09/02 06:51:00;;;;;;;10.90;9.70;;;;;;;13.64;88.74;101104.53;4939157;28;20035;-77
2022/09/02 06:53:26;;;;;;;10.43;9.52;;;;;;;13.78;87.47;101107.91;4926510;29;20574;-77
2022/09/02 06:55:52;;;;;;;8.98;8.07;;;;;;;13.85;86.24;101104.31;4943850;29;20115;-77
2022/09/02 06:58:19;;;;;;;7.95;7.20;;;;;;;13.92;85.50;101105.13;4943275;29;20062;-77
2022/09/02 07:00:44;;;;;;;7.75;6.93;;;;;;;14.02;85.22;101097.06;4933509;29;20071;-77
2022/09/02 07:06:08;;;;;;;8.23;7.43;;;;;;;14.31;84.29;101103.81;4927867;29;20042;-77
2022/09/02 07:08:39;;;;;;;11.27;8.32;;;;;;;14.46;83.55;101110.66;4924711;29;20047;-77
2022/09/02 07:11:06;;;;;;;11.00;9.40;;;;;;;14.59;82.65;101111.44;4932950;29;20054;-77
2022/09/02 07:13:32;;;;;;;8.63;7.68;;;;;;;14.71;82.54;101108.59;4928257;29;20122;-77
2022/09/02 07:15:59;;;;;;;8.52;7.70;;;;;;;14.81;82.21;101104.94;4943098;29;20028;-77
2022/09/02 07:18:26;;;;;;;9.25;7.95;;;;;;;14.90;81.37;101104.78;4940462;29;20032;-77
2022/09/02 07:20:53;;;;;;;10.10;8.70;;;;;;;15.07;81.25;101101.00;4929126;29;20409;-77
2022/09/02 07:23:19;;;;;;;8.18;7.20;;;;;;;15.20;79.93;101105.22;4938366;29;20380;-77
2022/09/02 07:25:45;;;;;;;8.95;7.03;;;;;;;15.26;78.30;101099.78;4942317;29;20043;-77
2022/09/02 07:28:11;;;;;;;8.00;7.32;;;;;;;15.41;78.66;101103.13;4943622;28;20114;-77
2022/09/02 07:30:39;;;;;;;8.88;7.97;;;;;;;15.54;77.94;101110.84;4931607;29;20040;-77
2022/09/02 07:33:12;;;;;;;7.97;7.15;;;;;;;15.68;76.99;101102.63;4941699;29;20032;-77
2022/09/02 07:35:40;;;;;;;8.55;7.85;;;;;;;15.77;75.90;101104.25;4926403;29;20439;-78
2022/09/02 07:38:07;;;;;;;8.25;7.45;;;;;;;15.88;74.98;101110.28;4941566;29;20039;-77
2022/09/02 07:40:35;;;;;;;8.18;7.57;;;;;;;16.05;74.82;101107.28;4935028;29;20415;-77
2022/09/02 07:43:04;;;;;;;8.43;7.57;;;;;;;16.15;74.07;101106.19;4945283;29;20428;-77
2022/09/02 07:45:31;;;;;;;7.63;7.03;;;;;;;16.26;73.84;101097.09;4932364;29;20123;-78
2022/09/02 07:47:57;;;;;;;8.27;7.57;;;;;;;16.37;72.63;101101.31;4931639;29;20090;-77
2022/09/02 07:50:25;;;;;;;6.60;6.10;;;;;;;16.44;72.14;101105.59;4936046;29;20032;-77
2022/09/02 07:52:53;;;;;;;10.98;7.93;;;;;;;16.60;71.72;101108.78;4929926;29;20040;-78
2022/09/02 07:55:20;;;;;;;7.75;6.95;;;;;;;16.74;70.54;101096.94;4942688;29;20039;-77
2022/09/02 07:57:46;;;;;;;7.78;7.18;;;;;;;16.85;69.55;101098.50;4939522;28;20059;-78
2022/09/02 08:00:15;;;;;;;9.15;8.25;;;;;;;17.00;69.22;101102.63;4935419;29;20031;-77
2022/09/02 08:02:41;;;;;;;8.95;8.20;;;;;;;17.19;67.94;101094.19;4940259;29;20043;-78
2022/09/02 08:05:07;;;;;;;8.55;7.75;;;;;;;17.31;66.68;101100.06;4932772;29;20039;-77
2022/09/02 08:07:32;;;;;;;8.30;6.97;;;;;;;17.34;65.85;101096.44;4932341;29;20024;-78
2022/09/02 08:09:59;;;;;;;9.15;8.25;;;;;;;17.45;64.94;101094.38;4933746;29;20051;-78
2022/09/02 08:12:25;;;;;;;9.90;8.52;;;;;;;17.61;65.27;101099.34;4926063;29;20087;-78
2022/09/02 08:14:50;;;;;;;8.73;7.93;;;;;;;17.75;64.46;101089.16;4931390;29;20507;-77
2022/09/02 08:17:16;;;;;;;7.55;6.85;;;;;;;17.89;63.97;101095.03;4929394;29;20082;-78
2022/09/02 08:19:43;;;;;;;7.78;6.93;;;;;;;18.04;63.65;101098.19;4926188;29;20043;-77
2022/09/02 08:22:08;;;;;;;7.93;6.40;;;;;;;18.09;61.96;101090.94;4928906;29;20070;-77
2022/09/02 08:24:34;;;;;;;7.38;6.78;;;;;;;18.20;62.67;101094.16;4927377;29;20100;-77
2022/09/02 08:27:00;;;;;;;11.00;6.68;;;;;;;18.32;61.97;101096.47;4926209;29;20040;-77
2022/09/02 08:29:25;;;;;;;12.15;8.55;;;;;;;18.43;60.88;101095.28;4941879;29;20094;-77
2022/09/02 08:31:50;;;;;;;7.43;6.75;;;;;;;18.51;59.97;101103.94;4943371;29;20130;-77
2022/09/02 08:34:16;;;;;;;9.13;7.85;;;;;;;18.61;58.88;101100.09;4929186;29;20136;-77
2022/09/02 08:36:42;;;;;;;8.52;7.72;;;;;;;18.74;59.11;101090.75;4926871;29;20115;-77
2022/09/02 08:39:08;;;;;;;8.18;7.47;;;;;;;18.86;56.91;101099.34;4927951;29;20115;-77
2022/09/02 08:42:00;;;;;;;7.82;7.22;;;;;;;18.96;56.51;101090.09;4925370;29;20036;-77
2022/09/02 08:44:27;;;;;;;15.38;8.98;;;;;;;19.03;57.37;101091.69;4931633;29;20058;-77
2022/09/02 08:47:01;;;;;;;10.00;8.65;;;;;;;19.12;56.34;101091.34;4936675;29;20117;-77
2022/09/02 08:49:44;;;;;;;8.02;7.43;;;;;;;19.26;55.87;101089.13;4938612;29;20047;-77
2022/09/02 08:52:17;;;;;;;7.43;6.82;;;;;;;19.34;54.89;101083.50;4925311;29;20450;-77
2022/09/02 08:54:52;;;;;;;7.95;6.93;;;;;;;19.40;54.14;101079.75;4925983;29;20062;-77
2022/09/02 08:57:17;;;;;;;9.05;7.57;;;;;;;19.47;54.04;101082.16;4925241;29;20087;-77
2022/09/02 08:59:44;;;;;;;8.20;7.60;;;;;;;19.54;54.49;101081.94;4926011;29;20384;-77
2022/09/02 09:02:34;;;;;;;7.63;6.95;;;;;;;19.66;52.72;101071.72;4933257;29;20090;-77
2022/09/02 09:05:29;;;;;;;7.65;7.05;;;;;;;19.74;51.75;101066.09;4926191;29;20060;-77
2022/09/02 09:08:09;;;;;;;7.22;6.65;;;;;;;19.78;52.61;101064.16;4926366;29;20028;-77
2022/09/02 09:10:57;;;;;;;9.82;8.98;;;;;;;19.96;52.11;101060.81;4925026;29;20044;-77
2022/09/02 09:13:35;;;;;;;9.35;8.25;;;;;;;20.17;51.82;101061.81;4931577;29;20048;-77
2022/09/02 09:16:31;;;;;;;9.48;8.80;;;;;;;20.10;48.93;101057.66;4930233;29;20044;-78
2022/09/02 09:19:07;;;;;;;8.00;7.30;;;;;;;20.16;50.93;101053.88;4923257;29;20044;-77
2022/09/02 09:21:33;;;;;;;8.02;7.00;;;;;;;20.20;51.28;101050.13;4940366;28;20147;-77
2022/09/02 09:24:05;;;;;;;10.50;8.02;;;;;;;20.20;50.64;101045.66;4923875;29;20125;-77
2022/09/02 09:26:35;;;;;;;8.50;7.80;;;;;;;20.23;50.36;101044.66;4924439;29;20036;-77
2022/09/02 09:29:03;;;;;;;7.28;6.55;;;;;;;20.29;49.71;101039.94;4924710;29;20051;-77
2022/09/02 09:31:31;;;;;;;8.38;7.80;;;;;;;20.44;49.33;101040.28;4925316;29;20036;-77
2022/09/02 09:34:11;;;;;;;8.93;8.13;;;;;;;20.57;48.11;101042.44;4923058;29;20047;-76
2022/09/02 09:36:40;;;;;;;8.48;7.57;;;;;;;20.58;48.29;101036.13;4926603;29;20078;-77
2022/09/02 09:39:28;;;;;;;9.48;8.50;;;;;;;20.58;46.79;101030.78;4930009;29;20039;-77
2022/09/02 09:42:00;;;;;;;15.27;8.70;;;;;;;20.76;47.94;101028.31;4923648;29;20048;-76
2022/09/02 09:44:38;;;;;;;9.10;8.20;;;;;;;20.94;46.01;101027.53;4925384;29;20118;-76
2022/09/02 09:47:09;;;;;;;9.52;8.85;;;;;;;21.23;46.07;101028.13;4926509;29;20032;-77
2022/09/02 09:49:36;;;;;;;10.27;9.27;;;;;;;21.32;45.92;101022.34;4923957;29;20472;-77
2022/09/02 09:52:02;;;;;;;8.18;7.57;;;;;;;21.37;46.41;101022.16;4926077;29;20848;-76
2022/09/02 09:54:28;;;;;;;8.57;7.97;;;;;;;21.37;45.63;101023.03;4925468;29;20399;-77
2022/09/02 09:56:55;;;;;;;9.27;8.60;;;;;;;21.41;45.92;101023.81;4922806;29;20040;-77
2022/09/02 09:59:39;;;;;;;9.73;9.13;;;;;;;21.49;44.83;101013.63;4930106;29;20035;-76
2022/09/02 10:02:05;;;;;;;10.05;9.30;;;;;;;21.61;45.43;101022.94;4940547;29;20048;-76
2022/09/02 10:04:32;;;;;;;9.73;8.50;;;;;;;21.86;44.28;101023.59;4926212;29;20043;-76
2022/09/02 10:06:57;;;;;;;8.70;7.97;;;;;;;21.99;42.99;101023.03;4923685;29;20119;-77
2022/09/02 10:09:33;;;;;;;9.43;8.73;;;;;;;21.98;43.42;101026.66;4931733;29;20154;-78
2022/09/02 10:12:10;;;;;;;8.57;7.80;;;;;;;22.01;42.67;101029.22;4947480;28;20180;-77
2022/09/02 10:14:36;;;;;;;9.82;9.23;;;;;;;22.03;42.26;101025.53;4935826;29;20102;-78
2022/09/02 10:17:39;;;;;;;9.93;9.30;;;;;;;22.13;41.87;101009.81;4929023;29;20454;-77
2022/09/02 10:20:15;;;;;;;10.05;9.32;;;;;;;22.31;41.88;101006.28;4929364;29;20043;-77
2022/09/02 10:23:07;;;;;;;9.52;8.80;;;;;;;22.40;42.85;101006.78;4930751;29;20110;-77
2022/09/02 10:26:10;;;;;;;10.73;9.95;;;;;;;22.61;41.23;101011.16;4943577;29;20036;-78
2022/09/02 10:29:21;;;;;;;11.07;10.20;;;;;;;22.97;40.86;100996.84;4927407;29;20533;-78
2022/09/02 10:32:01;;;;;;;10.77;10.07;;;;;;;23.60;38.84;100985.50;4914572;29;20067;-77
2022/09/02 10:34:35;;;;;;;9.80;9.02;;;;;;;23.63;38.69;100988.94;4923052;29;20048;-78
2022/09/02 10:37:03;;;;;;;9.55;8.65;;;;;;;23.70;39.09;100992.16;4937836;29;20105;-78
2022/09/02 10:39:48;;;;;;;9.32;8.73;;;;;;;23.75;38.09;100994.63;4943694;29;20504;-78
2022/09/02 10:42:18;;;;;;;9.85;9.15;;;;;;;23.72;38.28;100992.09;4927913;29;20044;-78
2022/09/02 10:45:17;;;;;;;12.73;9.63;;;;;;;23.75;37.22;100995.50;4931188;29;20518;-77
2022/09/02 10:47:53;;;;;;;11.30;10.50;;;;;;;23.75;38.64;100990.09;4927707;29;20044;-77
2022/09/02 10:50:36;;;;;;;9.25;8.60;;;;;;;23.67;37.58;100996.84;4935501;29;20048;-78
2022/09/02 10:53:17;;;;;;;8.88;8.32;;;;;;;23.48;37.78;100992.44;4951052;29;20039;-77
2022/09/02 10:55:53;;;;;;;9.30;8.63;;;;;;;23.34;38.03;100985.09;4928853;29;20043;-78
2022/09/02 10:58:30;;;;;;;10.73;7.95;;;;;;;23.09;37.68;100985.47;4928001;29;20553;-77
2022/09/02 11:00:56;;;;;;;10.05;9.38;;;;;;;23.09;38.58;100985.47;4931449;29;20032;-77
2022/09/02 11:03:37;;;;;;;12.93;11.73;;;;;;;22.98;38.21;100982.47;4932218;29;20046;-77
2022/09/02 11:06:11;;;;;;;9.55;9.05;;;;;;;23.02;38.83;100981.34;4931534;29;20083;-77
2022/09/02 11:08:51;;;;;;;8.73;8.23;;;;;;;23.34;36.55;100978.78;4926798;29;20044;-77
2022/09/02 11:11:23;;;;;;;9.48;8.88;;;;;;;23.55;37.37;100977.69;4926610;29;20051;-77
2022/09/02 11:13:58;;;;;;;10.25;9.40;;;;;;;23.63;36.38;100972.75;4927768;29;20040;-77
2022/09/02 11:16:34;;;;;;;9.93;9.15;;;;;;;23.59;35.73;100968.47;4929151;29;20055;-76
2022/09/02 11:19:14;;;;;;;10.85;9.98;;;;;;;23.70;35.56;100964.34;4931553;29;20044;-77
2022/09/02 11:21:55;;;;;;;9.45;8.93;;;;;;;23.69;37.07;100968.00;4941360;29;20036;-76
2022/09/02 11:24:35;;;;;;;9.60;8.45;;;;;;;23.89;37.04;100959.69;4930337;29;20038;-76
2022/09/02 11:27:28;;;;;;;9.18;8.57;;;;;;;23.71;35.92;100957.97;4934495;29;20495;-77
2022/09/02 11:30:01;;;;;;;8.65;8.15;;;;;;;23.56;37.22;100957.88;4931963;29;20134;-77
2022/09/02 11:32:53;;;;;;;9.68;8.95;;;;;;;23.43;36.42;100955.91;4934326;29;20087;-76
2022/09/02 11:35:27;;;;;;;10.77;9.65;;;;;;;23.64;36.86;100960.16;4930511;29;20035;-76
2022/09/02 11:38:02;;;;;;;11.15;10.48;;;;;;;23.88;35.67;100949.88;4943986;29;20450;-76
2022/09/02 11:40:36;;;;;;;10.27;9.57;;;;;;;24.14;36.25;100948.44;4929924;29;20055;-76
2022/09/02 11:43:30;;;;;;;10.00;9.23;;;;;;;24.30;35.08;100955.66;4931705;29;20047;-76